sensor_id;sensor_type;location;lat;lon;timestamp;pressure;altitude;pressure_sealevel;temperature;humidity
37648;BME280;23490;53.656;10.076;2023-09-19T00:00:23;98104.78;;;-145.95;98.91
37648;BME280;23490;53.656;10.076;2023-09-19T00:02:54;98137.81;;;-145.95;98.60
37648;BME280;23490;53.656;10.076;2023-09-19T00:05:28;98104.78;;;-145.95;97.78
37648;BME280;23490;53.656;10.076;2023-09-19T00:07:57;98129.56;;;-145.95;97.93
37648;BME280;23490;53.656;10.076;2023-09-19T00:10:29;98084.13;;;-145.95;98.15
37648;BME280;23490;53.656;10.076;2023-09-19T00:12:57;98084.13;;;-145.95;99.24
37648;BME280;23490;53.656;10.076;2023-09-19T00:15:27;98077.94;;;-145.95;98.38
37648;BME280;23490;53.656;10.076;2023-09-19T00:17:56;98123.34;;;-145.95;98.88
37648;BME280;23490;53.656;10.076;2023-09-19T00:20:22;98154.31;;;-145.95;100.00
37648;BME280;23490;53.656;10.076;2023-09-19T00:22:49;98104.78;;;-145.95;99.30
37648;BME280;23490;53.656;10.076;2023-09-19T00:25:17;98141.94;;;-145.95;99.35
37648;BME280;23490;53.656;10.076;2023-09-19T00:27:43;98146.06;;;-145.95;99.34
37648;BME280;23490;53.656;10.076;2023-09-19T00:30:11;98125.44;;;-145.95;99.35
37648;BME280;23490;53.656;10.076;2023-09-19T00:32:40;98179.09;;;-145.95;100.00
37648;BME280;23490;53.656;10.076;2023-09-19T00:35:06;98125.44;;;-145.95;100.00
37648;BME280;23490;53.656;10.076;2023-09-19T00:37:33;98102.72;;;-145.95;99.51
37648;BME280;23490;53.656;10.076;2023-09-19T00:39:58;98117.16;;;-145.95;99.69
37648;BME280;23490;53.656;10.076;2023-09-19T00:42:23;98208.00;;;-145.95;100.00
37648;BME280;23490;53.656;10.076;2023-09-19T00:44:51;98158.47;;;-145.95;99.30
37648;BME280;23490;53.656;10.076;2023-09-19T00:47:17;98179.09;;;-145.95;100.00
37648;BME280;23490;53.656;10.076;2023-09-19T00:49:44;98179.09;;;-145.95;100.00
37648;BME280;23490;53.656;10.076;2023-09-19T00:52:14;98106.84;;;-145.95;99.55
37648;BME280;23490;53.656;10.076;2023-09-19T00:54:40;98141.94;;;-145.95;99.63
37648;BME280;23490;53.656;10.076;2023-09-19T00:57:06;98146.06;;;-145.95;100.00
37648;BME280;23490;53.656;10.076;2023-09-19T00:59:33;98183.22;;;-145.95;99.77
37648;BME280;23490;53.656;10.076;2023-09-19T01:02:02;98201.81;;;-145.95;100.00
37648;BME280;23490;53.656;10.076;2023-09-19T01:04:29;98172.91;;;-145.95;100.00
37648;BME280;23490;53.656;10.076;2023-09-19T01:06:54;98189.44;;;-145.95;100.00
37648;BME280;23490;53.656;10.076;2023-09-19T01:09:20;98164.66;;;-145.95;99.56
37648;BME280;23490;53.656;10.076;2023-09-19T01:11:48;98129.56;;;-145.95;100.00
37648;BME280;23490;53.656;10.076;2023-09-19T01:14:34;98146.06;;;-145.95;99.70
37648;BME280;23490;53.656;10.076;2023-09-19T01:17:25;98218.31;;;-145.95;99.42
37648;BME280;23490;53.656;10.076;2023-09-19T01:25:24;98129.56;;;-145.95;100.00
37648;BME280;23490;53.656;10.076;2023-09-19T01:31:02;98172.91;;;-145.95;100.00
37648;BME280;23490;53.656;10.076;2023-09-19T01:33:52;98183.22;;;-145.95;100.00
37648;BME280;23490;53.656;10.076;2023-09-19T01:36:16;98193.56;;;-145.95;100.00
37648;BME280;23490;53.656;10.076;2023-09-19T01:38:42;98162.59;;;-145.95;100.00
37648;BME280;23490;53.656;10.076;2023-09-19T01:41:11;98199.75;;;-145.95;100.00
37648;BME280;23490;53.656;10.076;2023-09-19T01:43:42;98158.47;;;-145.95;99.79
37648;BME280;23490;53.656;10.076;2023-09-19T01:46:30;98197.69;;;-145.95;100.00
37648;BME280;23490;53.656;10.076;2023-09-19T01:51:36;98166.72;;;-145.95;98.18
37648;BME280;23490;53.656;10.076;2023-09-19T01:54:12;98179.09;;;-145.95;97.57
37648;BME280;23490;53.656;10.076;2023-09-19T01:56:50;98172.91;;;-145.95;97.79
37648;BME280;23490;53.656;10.076;2023-09-19T01:59:24;98224.53;;;-145.95;96.99
37648;BME280;23490;53.656;10.076;2023-09-19T02:01:53;98191.50;;;-145.95;96.32
37648;BME280;23490;53.656;10.076;2023-09-19T02:04:19;98218.31;;;-145.95;94.38
37648;BME280;23490;53.656;10.076;2023-09-19T02:06:44;98236.91;;;-145.95;93.21
37648;BME280;23490;53.656;10.076;2023-09-19T02:09:13;98185.28;;;-145.95;92.68
37648;BME280;23490;53.656;10.076;2023-09-19T02:11:40;98201.81;;;-145.95;93.44
37648;BME280;23490;53.656;10.076;2023-09-19T02:14:06;98216.25;;;-145.95;93.26
37648;BME280;23490;53.656;10.076;2023-09-19T02:16:36;98228.66;;;-145.95;91.60
37648;BME280;23490;53.656;10.076;2023-09-19T02:19:02;98220.38;;;-145.95;91.07
37648;BME280;23490;53.656;10.076;2023-09-19T02:21:31;98212.13;;;-145.95;90.99
37648;BME280;23490;53.656;10.076;2023-09-19T02:23:57;98220.38;;;-145.95;90.83
37648;BME280;23490;53.656;10.076;2023-09-19T02:26:23;98236.91;;;-145.95;91.57
37648;BME280;23490;53.656;10.076;2023-09-19T02:28:48;98220.38;;;-145.95;91.97
37648;BME280;23490;53.656;10.076;2023-09-19T02:31:14;98238.97;;;-145.95;94.09
37648;BME280;23490;53.656;10.076;2023-09-19T02:33:39;98226.59;;;-145.95;94.12
37648;BME280;23490;53.656;10.076;2023-09-19T02:36:04;98232.78;;;-145.95;94.13
37648;BME280;23490;53.656;10.076;2023-09-19T02:38:30;98241.03;;;-145.95;94.88
37648;BME280;23490;53.656;10.076;2023-09-19T02:40:56;98208.00;;;-145.95;95.01
37648;BME280;23490;53.656;10.076;2023-09-19T02:43:22;98241.03;;;-145.95;95.22
37648;BME280;23490;53.656;10.076;2023-09-19T02:45:48;98220.38;;;-145.95;96.22
37648;BME280;23490;53.656;10.076;2023-09-19T02:48:20;98230.72;;;-145.95;96.57
37648;BME280;23490;53.656;10.076;2023-09-19T02:50:49;98261.69;;;-145.95;98.03
37648;BME280;23490;53.656;10.076;2023-09-19T02:53:14;98265.81;;;-145.95;97.60
37648;BME280;23490;53.656;10.076;2023-09-19T02:55:40;98216.25;;;-145.95;97.70
37648;BME280;23490;53.656;10.076;2023-09-19T02:58:06;98230.72;;;-145.95;97.76
37648;BME280;23490;53.656;10.076;2023-09-19T03:00:39;98220.38;;;-145.95;97.90
37648;BME280;23490;53.656;10.076;2023-09-19T03:03:07;98241.03;;;-145.95;97.91
37648;BME280;23490;53.656;10.076;2023-09-19T03:05:34;98261.69;;;-145.95;97.90
37648;BME280;23490;53.656;10.076;2023-09-19T03:08:00;98238.97;;;-145.95;98.41
37648;BME280;23490;53.656;10.076;2023-09-19T03:10:28;98265.81;;;-145.95;98.79
37648;BME280;23490;53.656;10.076;2023-09-19T03:12:54;98236.91;;;-145.95;98.14
37648;BME280;23490;53.656;10.076;2023-09-19T03:15:19;98236.91;;;-145.95;97.77
37648;BME280;23490;53.656;10.076;2023-09-19T03:17:46;98212.13;;;-145.95;96.14
37648;BME280;23490;53.656;10.076;2023-09-19T03:20:17;98249.28;;;-145.95;94.38
37648;BME280;23490;53.656;10.076;2023-09-19T03:22:43;98224.53;;;-145.95;95.49
37648;BME280;23490;53.656;10.076;2023-09-19T03:25:09;98232.78;;;-145.95;93.76
37648;BME280;23490;53.656;10.076;2023-09-19T03:27:38;98212.13;;;-145.95;93.00
37648;BME280;23490;53.656;10.076;2023-09-19T03:30:04;98241.03;;;-145.95;94.22
37648;BME280;23490;53.656;10.076;2023-09-19T03:32:37;98224.53;;;-145.95;91.55
37648;BME280;23490;53.656;10.076;2023-09-19T03:35:08;98236.91;;;-145.95;91.67
37648;BME280;23490;53.656;10.076;2023-09-19T03:37:36;98216.25;;;-145.95;91.06
37648;BME280;23490;53.656;10.076;2023-09-19T03:40:01;98234.84;;;-145.95;91.17
37648;BME280;23490;53.656;10.076;2023-09-19T03:42:31;98267.88;;;-145.95;91.34
37648;BME280;23490;53.656;10.076;2023-09-19T03:44:56;98261.69;;;-145.95;91.85
37648;BME280;23490;53.656;10.076;2023-09-19T03:47:22;98276.13;;;-145.95;91.86
37648;BME280;23490;53.656;10.076;2023-09-19T03:49:47;98280.25;;;-145.95;92.76
37648;BME280;23490;53.656;10.076;2023-09-19T03:52:13;98315.38;;;-145.95;91.49
37648;BME280;23490;53.656;10.076;2023-09-19T03:54:40;98274.06;;;-145.95;92.97
37648;BME280;23490;53.656;10.076;2023-09-19T03:57:07;98222.47;;;-145.95;92.47
37648;BME280;23490;53.656;10.076;2023-09-19T03:59:32;98228.66;;;-145.95;91.88
37648;BME280;23490;53.656;10.076;2023-09-19T04:01:57;98230.72;;;-145.95;91.63
37648;BME280;23490;53.656;10.076;2023-09-19T04:04:23;98259.63;;;-145.95;91.49
37648;BME280;23490;53.656;10.076;2023-09-19T04:06:51;98257.56;;;-145.95;89.63
37648;BME280;23490;53.656;10.076;2023-09-19T04:09:16;98307.09;;;-145.95;89.86
37648;BME280;23490;53.656;10.076;2023-09-19T04:11:41;98265.81;;;-145.95;88.65
37648;BME280;23490;53.656;10.076;2023-09-19T04:14:07;98282.31;;;-145.95;89.45
37648;BME280;23490;53.656;10.076;2023-09-19T04:16:33;98288.53;;;-145.95;89.02
37648;BME280;23490;53.656;10.076;2023-09-19T04:18:58;98307.09;;;-145.95;88.33
37648;BME280;23490;53.656;10.076;2023-09-19T04:21:23;98311.22;;;-145.95;88.11
37648;BME280;23490;53.656;10.076;2023-09-19T04:23:49;98338.06;;;-145.95;88.22
37648;BME280;23490;53.656;10.076;2023-09-19T04:26:14;98340.13;;;-145.95;87.93
37648;BME280;23490;53.656;10.076;2023-09-19T04:28:42;98352.53;;;-145.95;87.81
37648;BME280;23490;53.656;10.076;2023-09-19T04:31:09;98311.22;;;-145.95;87.21
37648;BME280;23490;53.656;10.076;2023-09-19T04:33:35;98323.63;;;-145.95;85.72
37648;BME280;23490;53.656;10.076;2023-09-19T04:36:01;98336.00;;;-145.95;85.60
37648;BME280;23490;53.656;10.076;2023-09-19T04:38:28;98402.06;;;-145.95;84.75
37648;BME280;23490;53.656;10.076;2023-09-19T04:40:57;98369.03;;;-145.95;84.81
37648;BME280;23490;53.656;10.076;2023-09-19T04:43:25;98373.16;;;-145.95;84.67
37648;BME280;23490;53.656;10.076;2023-09-19T04:45:51;98354.59;;;-145.95;84.60
37648;BME280;23490;53.656;10.076;2023-09-19T04:48:20;98375.22;;;-145.95;85.75
37648;BME280;23490;53.656;10.076;2023-09-19T04:50:48;98377.28;;;-145.95;85.41
37648;BME280;23490;53.656;10.076;2023-09-19T04:53:13;98397.94;;;-145.95;85.85
37648;BME280;23490;53.656;10.076;2023-09-19T04:55:39;98348.38;;;-145.95;85.14
37648;BME280;23490;53.656;10.076;2023-09-19T04:58:04;98340.13;;;-145.95;85.17
37648;BME280;23490;53.656;10.076;2023-09-19T05:00:29;98340.13;;;-145.95;84.42
37648;BME280;23490;53.656;10.076;2023-09-19T05:02:56;98385.56;;;-145.95;85.50
37648;BME280;23490;53.656;10.076;2023-09-19T05:05:23;98356.66;;;-145.95;84.94
37648;BME280;23490;53.656;10.076;2023-09-19T05:07:49;98464.00;;;-145.95;84.46
37648;BME280;23490;53.656;10.076;2023-09-19T05:10:15;98385.56;;;-145.95;85.01
37648;BME280;23490;53.656;10.076;2023-09-19T05:12:44;98381.44;;;-145.95;85.35
37648;BME280;23490;53.656;10.076;2023-09-19T05:15:12;98430.97;;;-145.95;84.92
37648;BME280;23490;53.656;10.076;2023-09-19T05:17:38;98416.53;;;-145.95;85.09
37648;BME280;23490;53.656;10.076;2023-09-19T05:20:04;98422.72;;;-145.95;85.64
37648;BME280;23490;53.656;10.076;2023-09-19T05:22:42;98381.44;;;-145.95;85.77
37648;BME280;23490;53.656;10.076;2023-09-19T05:25:09;98435.09;;;-145.95;84.75
37648;BME280;23490;53.656;10.076;2023-09-19T05:27:35;98410.34;;;-145.95;85.74
37648;BME280;23490;53.656;10.076;2023-09-19T05:30:00;98381.44;;;-145.95;84.89
37648;BME280;23490;53.656;10.076;2023-09-19T05:32:26;98402.06;;;-145.95;85.28
37648;BME280;23490;53.656;10.076;2023-09-19T05:34:51;98443.38;;;-145.95;86.40
37648;BME280;23490;53.656;10.076;2023-09-19T05:37:21;98459.88;;;-145.95;85.56
37648;BME280;23490;53.656;10.076;2023-09-19T05:39:47;98492.91;;;-145.95;85.45
37648;BME280;23490;53.656;10.076;2023-09-19T05:42:12;98439.22;;;-145.95;86.36
37648;BME280;23490;53.656;10.076;2023-09-19T05:44:37;98435.09;;;-145.95;86.10
37648;BME280;23490;53.656;10.076;2023-09-19T05:47:03;98441.31;;;-145.95;87.21
37648;BME280;23490;53.656;10.076;2023-09-19T05:49:29;98435.09;;;-145.95;87.41
37648;BME280;23490;53.656;10.076;2023-09-19T05:51:54;98426.84;;;-145.95;86.70
37648;BME280;23490;53.656;10.076;2023-09-19T05:54:21;98387.63;;;-145.95;87.05
37648;BME280;23490;53.656;10.076;2023-09-19T05:56:47;98449.56;;;-145.95;86.95
37648;BME280;23490;53.656;10.076;2023-09-19T05:59:13;98393.81;;;-145.95;87.04
37648;BME280;23490;53.656;10.076;2023-09-19T06:01:41;98373.16;;;-145.95;86.10
37648;BME280;23490;53.656;10.076;2023-09-19T06:04:07;98414.47;;;-145.95;86.27
37648;BME280;23490;53.656;10.076;2023-09-19T06:06:33;98414.47;;;-145.95;85.67
37648;BME280;23490;53.656;10.076;2023-09-19T06:09:04;98393.81;;;-145.95;85.02
37648;BME280;23490;53.656;10.076;2023-09-19T06:11:31;98418.59;;;-145.95;84.69
37648;BME280;23490;53.656;10.076;2023-09-19T06:13:59;98340.13;;;-145.95;84.04
37648;BME280;23490;53.656;10.076;2023-09-19T06:16:25;98406.19;;;-145.95;84.47
37648;BME280;23490;53.656;10.076;2023-09-19T06:18:51;98377.28;;;-145.95;85.04
37648;BME280;23490;53.656;10.076;2023-09-19T06:21:18;98340.13;;;-145.95;83.59
37648;BME280;23490;53.656;10.076;2023-09-19T06:23:43;98331.88;;;-145.95;82.29
37648;BME280;23490;53.656;10.076;2023-09-19T06:26:08;98331.88;;;-145.95;81.89
37648;BME280;23490;53.656;10.076;2023-09-19T06:28:34;98331.88;;;-145.95;82.12
37648;BME280;23490;53.656;10.076;2023-09-19T06:31:02;98364.91;;;-145.95;81.60
37648;BME280;23490;53.656;10.076;2023-09-19T06:33:27;98302.97;;;-145.95;82.69
37648;BME280;23490;53.656;10.076;2023-09-19T06:35:53;98317.44;;;-145.95;82.54
37648;BME280;23490;53.656;10.076;2023-09-19T06:38:24;98298.84;;;-145.95;80.88
37648;BME280;23490;53.656;10.076;2023-09-19T06:40:49;98323.63;;;-145.95;81.17
37648;BME280;23490;53.656;10.076;2023-09-19T06:43:15;98360.78;;;-145.95;80.76
37648;BME280;23490;53.656;10.076;2023-09-19T06:45:40;98274.06;;;-145.95;80.77
37648;BME280;23490;53.656;10.076;2023-09-19T06:48:06;98284.38;;;-145.95;80.73
37648;BME280;23490;53.656;10.076;2023-09-19T06:50:32;98323.63;;;-145.95;79.94
37648;BME280;23490;53.656;10.076;2023-09-19T06:52:59;98282.31;;;-145.95;80.02
37648;BME280;23490;53.656;10.076;2023-09-19T06:55:25;98272.00;;;-145.95;79.64
37648;BME280;23490;53.656;10.076;2023-09-19T06:57:53;98261.69;;;-145.95;79.29
37648;BME280;23490;53.656;10.076;2023-09-19T07:00:21;98342.19;;;-145.95;78.41
37648;BME280;23490;53.656;10.076;2023-09-19T07:03:14;98286.47;;;-145.95;79.92
37648;BME280;23490;53.656;10.076;2023-09-19T07:05:41;98261.69;;;-145.95;79.25
37648;BME280;23490;53.656;10.076;2023-09-19T07:08:08;98265.81;;;-145.95;79.42
37648;BME280;23490;53.656;10.076;2023-09-19T07:10:38;98265.81;;;-145.95;79.65
37648;BME280;23490;53.656;10.076;2023-09-19T07:13:07;98255.50;;;-145.95;79.76
37648;BME280;23490;53.656;10.076;2023-09-19T07:15:38;98226.59;;;-145.95;80.25
37648;BME280;23490;53.656;10.076;2023-09-19T07:18:06;98193.56;;;-145.95;79.42
37648;BME280;23490;53.656;10.076;2023-09-19T07:20:34;98218.31;;;-145.95;78.25
37648;BME280;23490;53.656;10.076;2023-09-19T07:23:00;98241.03;;;-145.95;78.51
37648;BME280;23490;53.656;10.076;2023-09-19T07:25:26;98228.66;;;-145.95;79.28
37648;BME280;23490;53.656;10.076;2023-09-19T07:27:52;98203.88;;;-145.95;78.76
37648;BME280;23490;53.656;10.076;2023-09-19T07:30:17;98185.28;;;-145.95;79.36
37648;BME280;23490;53.656;10.076;2023-09-19T07:32:43;98170.84;;;-145.95;78.32
37648;BME280;23490;53.656;10.076;2023-09-19T07:35:08;98177.03;;;-145.95;78.24
37648;BME280;23490;53.656;10.076;2023-09-19T07:37:34;98216.25;;;-145.95;78.67
37648;BME280;23490;53.656;10.076;2023-09-19T07:40:00;98216.25;;;-145.95;79.39
37648;BME280;23490;53.656;10.076;2023-09-19T07:42:26;98191.50;;;-145.95;79.15
37648;BME280;23490;53.656;10.076;2023-09-19T07:44:52;98212.13;;;-145.95;78.87
37648;BME280;23490;53.656;10.076;2023-09-19T07:47:20;98230.72;;;-145.95;78.94
37648;BME280;23490;53.656;10.076;2023-09-19T07:49:49;98253.44;;;-145.95;79.57
37648;BME280;23490;53.656;10.076;2023-09-19T07:52:15;98253.44;;;-145.95;79.78
37648;BME280;23490;53.656;10.076;2023-09-19T07:54:41;98238.97;;;-145.95;80.03
37648;BME280;23490;53.656;10.076;2023-09-19T07:57:06;98253.44;;;-145.95;81.17
37648;BME280;23490;53.656;10.076;2023-09-19T07:59:32;98269.94;;;-145.95;81.03
37648;BME280;23490;53.656;10.076;2023-09-19T08:01:58;98249.28;;;-145.95;81.05
37648;BME280;23490;53.656;10.076;2023-09-19T08:04:23;98253.44;;;-145.95;77.88
37648;BME280;23490;53.656;10.076;2023-09-19T08:06:50;98245.16;;;-145.95;74.68
37648;BME280;23490;53.656;10.076;2023-09-19T08:09:17;98236.91;;;-145.95;75.21
37648;BME280;23490;53.656;10.076;2023-09-19T08:11:47;98294.72;;;-145.95;75.36
37648;BME280;23490;53.656;10.076;2023-09-19T08:14:13;98265.81;;;-145.95;76.76
37648;BME280;23490;53.656;10.076;2023-09-19T08:16:39;98236.91;;;-145.95;77.72
37648;BME280;23490;53.656;10.076;2023-09-19T08:19:05;98265.81;;;-145.95;79.19
37648;BME280;23490;53.656;10.076;2023-09-19T08:21:31;98265.81;;;-145.95;79.00
37648;BME280;23490;53.656;10.076;2023-09-19T08:23:57;98224.53;;;-145.95;79.31
37648;BME280;23490;53.656;10.076;2023-09-19T08:26:23;98253.44;;;-145.95;80.17
37648;BME280;23490;53.656;10.076;2023-09-19T08:28:49;98278.19;;;-145.95;81.05
37648;BME280;23490;53.656;10.076;2023-09-19T08:31:16;98241.03;;;-145.95;80.60
37648;BME280;23490;53.656;10.076;2023-09-19T08:33:42;98280.25;;;-145.95;80.62
37648;BME280;23490;53.656;10.076;2023-09-19T08:36:09;98208.00;;;-145.95;81.13
37648;BME280;23490;53.656;10.076;2023-09-19T08:38:35;98174.97;;;-145.95;80.67
37648;BME280;23490;53.656;10.076;2023-09-19T08:41:05;98220.38;;;-145.95;80.01
37648;BME280;23490;53.656;10.076;2023-09-19T08:43:31;98203.88;;;-145.95;79.58
37648;BME280;23490;53.656;10.076;2023-09-19T08:48:31;98195.63;;;-145.95;78.66
37648;BME280;23490;53.656;10.076;2023-09-19T08:51:03;98191.50;;;-145.95;78.30
37648;BME280;23490;53.656;10.076;2023-09-19T08:53:46;98187.34;;;-145.95;78.37
37648;BME280;23490;53.656;10.076;2023-09-19T08:56:16;98187.34;;;-145.95;77.72
37648;BME280;23490;53.656;10.076;2023-09-19T08:58:57;98191.50;;;-145.95;77.60
37648;BME280;23490;53.656;10.076;2023-09-19T09:01:27;98187.34;;;-145.95;77.22
37648;BME280;23490;53.656;10.076;2023-09-19T09:03:54;98166.72;;;-145.95;78.01
37648;BME280;23490;53.656;10.076;2023-09-19T09:06:21;98162.59;;;-145.95;76.66
37648;BME280;23490;53.656;10.076;2023-09-19T09:08:47;98179.09;;;-145.95;75.76
37648;BME280;23490;53.656;10.076;2023-09-19T09:11:15;98141.94;;;-145.95;74.77
37648;BME280;23490;53.656;10.076;2023-09-19T09:13:42;98129.56;;;-145.95;76.08
37648;BME280;23490;53.656;10.076;2023-09-19T09:16:08;98156.41;;;-145.95;75.10
37648;BME280;23490;53.656;10.076;2023-09-19T09:18:35;98117.16;;;-145.95;74.85
37648;BME280;23490;53.656;10.076;2023-09-19T09:21:00;98154.31;;;-145.95;75.53
37648;BME280;23490;53.656;10.076;2023-09-19T09:23:27;98129.56;;;-145.95;73.37
37648;BME280;23490;53.656;10.076;2023-09-19T09:25:55;98096.53;;;-145.95;74.28
37648;BME280;23490;53.656;10.076;2023-09-19T09:28:33;98108.91;;;-145.95;73.15
37648;BME280;23490;53.656;10.076;2023-09-19T09:30:59;98096.53;;;-145.95;72.87
37648;BME280;23490;53.656;10.076;2023-09-19T09:33:25;98100.66;;;-145.95;73.15
37648;BME280;23490;53.656;10.076;2023-09-19T09:38:20;97989.19;;;-145.95;73.99
37648;BME280;23490;53.656;10.076;2023-09-19T09:40:50;97947.88;;;-145.95;71.29
37648;BME280;23490;53.656;10.076;2023-09-19T09:46:19;97927.25;;;-145.95;65.67
37648;BME280;23490;53.656;10.076;2023-09-19T09:48:59;97919.00;;;-145.95;65.43
37648;BME280;23490;53.656;10.076;2023-09-19T09:51:57;97848.81;;;-145.95;65.02
37648;BME280;23490;53.656;10.076;2023-09-19T09:54:28;97836.41;;;-145.95;63.88
37648;BME280;23490;53.656;10.076;2023-09-19T09:57:00;97819.91;;;-145.95;63.02
37648;BME280;23490;53.656;10.076;2023-09-19T10:00:06;97809.59;;;-145.95;62.49
37648;BME280;23490;53.656;10.076;2023-09-19T10:02:36;97799.25;;;-145.95;61.35
37648;BME280;23490;53.656;10.076;2023-09-19T10:07:51;97762.09;;;-145.95;62.42
37648;BME280;23490;53.656;10.076;2023-09-19T10:10:32;97700.19;;;-145.95;61.93
37648;BME280;23490;53.656;10.076;2023-09-19T10:13:11;97762.09;;;-145.95;61.00
37648;BME280;23490;53.656;10.076;2023-09-19T10:15:39;97737.34;;;-145.95;59.52
37648;BME280;23490;53.656;10.076;2023-09-19T10:18:10;97724.94;;;-145.95;60.88
37648;BME280;23490;53.656;10.076;2023-09-19T10:20:39;97716.69;;;-145.95;59.93
37648;BME280;23490;53.656;10.076;2023-09-19T10:23:09;97737.34;;;-145.95;58.91
37648;BME280;23490;53.656;10.076;2023-09-19T10:25:41;97696.06;;;-145.95;57.18
37648;BME280;23490;53.656;10.076;2023-09-19T10:28:11;97757.97;;;-145.95;59.36
37648;BME280;23490;53.656;10.076;2023-09-19T10:30:41;97762.09;;;-145.95;55.81
37648;BME280;23490;53.656;10.076;2023-09-19T10:33:09;97751.78;;;-145.95;57.96
37648;BME280;23490;53.656;10.076;2023-09-19T10:35:38;97741.47;;;-145.95;57.20
37648;BME280;23490;53.656;10.076;2023-09-19T10:38:07;97650.63;;;-145.95;56.53
37648;BME280;23490;53.656;10.076;2023-09-19T10:40:35;97644.44;;;-145.95;53.54
37648;BME280;23490;53.656;10.076;2023-09-19T10:43:05;97584.59;;;-145.95;54.25
37648;BME280;23490;53.656;10.076;2023-09-19T10:45:32;97561.88;;;-145.95;53.14
37648;BME280;23490;53.656;10.076;2023-09-19T10:48:02;97559.81;;;-145.95;53.47
37648;BME280;23490;53.656;10.076;2023-09-19T10:50:36;97652.69;;;-145.95;53.47
37648;BME280;23490;53.656;10.076;2023-09-19T10:53:07;97687.78;;;-145.95;53.95
37648;BME280;23490;53.656;10.076;2023-09-19T10:55:36;97654.75;;;-145.95;53.82
37648;BME280;23490;53.656;10.076;2023-09-19T10:58:03;97760.03;;;-145.95;54.30
37648;BME280;23490;53.656;10.076;2023-09-19T11:00:59;97757.97;;;-145.95;55.14
37648;BME280;23490;53.656;10.076;2023-09-19T11:03:44;97683.66;;;-145.95;54.80
37648;BME280;23490;53.656;10.076;2023-09-19T11:06:11;97708.44;;;-145.95;54.37
37648;BME280;23490;53.656;10.076;2023-09-19T11:08:54;97733.22;;;-145.95;53.79
37648;BME280;23490;53.656;10.076;2023-09-19T11:30:41;97834.34;;;-145.95;57.13
37648;BME280;23490;53.656;10.076;2023-09-19T11:33:29;97782.75;;;-145.95;59.19
37648;BME280;23490;53.656;10.076;2023-09-19T11:46:34;97778.63;;;-145.95;55.08
37648;BME280;23490;53.656;10.076;2023-09-19T11:49:17;97675.41;;;-145.95;55.23
37648;BME280;23490;53.656;10.076;2023-09-19T11:51:50;97679.53;;;-145.95;54.78
37648;BME280;23490;53.656;10.076;2023-09-19T11:54:19;97770.34;;;-145.95;55.08
37648;BME280;23490;53.656;10.076;2023-09-19T11:56:49;97749.72;;;-145.95;56.37
37648;BME280;23490;53.656;10.076;2023-09-19T11:59:31;97819.91;;;-145.95;54.95
37648;BME280;23490;53.656;10.076;2023-09-19T12:02:05;97700.19;;;-145.95;54.74
37648;BME280;23490;53.656;10.076;2023-09-19T12:04:39;97638.25;;;-145.95;54.24
37648;BME280;23490;53.656;10.076;2023-09-19T12:07:08;97617.59;;;-145.95;53.80
37648;BME280;23490;53.656;10.076;2023-09-19T12:09:40;97572.19;;;-145.95;52.56
37648;BME280;23490;53.656;10.076;2023-09-19T12:12:10;97489.63;;;-145.95;52.67
37648;BME280;23490;53.656;10.076;2023-09-19T12:14:38;97535.03;;;-145.95;52.01
37648;BME280;23490;53.656;10.076;2023-09-19T12:17:04;97489.63;;;-145.95;50.92
37648;BME280;23490;53.656;10.076;2023-09-19T12:19:30;97518.53;;;-145.95;50.88
37648;BME280;23490;53.656;10.076;2023-09-19T12:22:02;97522.66;;;-145.95;50.97
37648;BME280;23490;53.656;10.076;2023-09-19T12:24:30;97576.31;;;-145.95;52.46
37648;BME280;23490;53.656;10.076;2023-09-19T12:27:05;97491.69;;;-145.95;52.57
37648;BME280;23490;53.656;10.076;2023-09-19T12:29:32;97427.72;;;-145.95;50.36
37648;BME280;23490;53.656;10.076;2023-09-19T12:32:07;97477.25;;;-145.95;50.56
37648;BME280;23490;53.656;10.076;2023-09-19T12:34:41;97530.91;;;-145.95;50.60
37648;BME280;23490;53.656;10.076;2023-09-19T12:37:12;97456.63;;;-145.95;50.88
37648;BME280;23490;53.656;10.076;2023-09-19T12:39:39;97262.59;;;-145.95;49.33
37648;BME280;23490;53.656;10.076;2023-09-19T12:42:59;97184.16;;;-145.95;48.72
37648;BME280;23490;53.656;10.076;2023-09-19T12:45:23;97241.97;;;-145.95;48.58
37648;BME280;23490;53.656;10.076;2023-09-19T12:48:17;97380.25;;;-145.95;47.67
37648;BME280;23490;53.656;10.076;2023-09-19T12:51:05;97254.34;;;-145.95;47.88
37648;BME280;23490;53.656;10.076;2023-09-19T12:53:37;97258.47;;;-145.95;46.92
37648;BME280;23490;53.656;10.076;2023-09-19T12:56:08;97184.16;;;-145.95;46.34
37648;BME280;23490;53.656;10.076;2023-09-19T12:58:54;97287.38;;;-145.95;46.91
37648;BME280;23490;53.656;10.076;2023-09-19T13:01:20;97369.91;;;-145.95;48.18
37648;BME280;23490;53.656;10.076;2023-09-19T13:03:45;97388.50;;;-145.95;48.59
37648;BME280;23490;53.656;10.076;2023-09-19T13:06:11;97336.91;;;-145.95;48.73
37648;BME280;23490;53.656;10.076;2023-09-19T13:08:38;97460.75;;;-145.95;49.04
37648;BME280;23490;53.656;10.076;2023-09-19T13:11:11;97287.38;;;-145.95;47.00
37648;BME280;23490;53.656;10.076;2023-09-19T13:13:48;97227.50;;;-145.95;47.85
37648;BME280;23490;53.656;10.076;2023-09-19T13:16:15;97237.81;;;-145.95;47.43
37648;BME280;23490;53.656;10.076;2023-09-19T13:18:49;97345.16;;;-145.95;46.64
37648;BME280;23490;53.656;10.076;2023-09-19T13:21:32;97336.91;;;-145.95;47.00
37648;BME280;23490;53.656;10.076;2023-09-19T13:24:25;97386.44;;;-145.95;49.24
37648;BME280;23490;53.656;10.076;2023-09-19T13:26:53;97411.19;;;-145.95;47.30
37648;BME280;23490;53.656;10.076;2023-09-19T13:29:18;97440.09;;;-145.95;47.86
37648;BME280;23490;53.656;10.076;2023-09-19T13:31:52;97369.91;;;-145.95;47.32